sensor_id;sensor_type;location;lat;lon;timestamp;P1;durP1;ratioP1;P2;durP2;ratioP2
757;SDS011;363;48.764;9.172;2023-02-18T00:01:21;1.07;;;0.97;;
757;SDS011;363;48.764;9.172;2023-02-18T00:03:48;1.50;;;1.00;;
757;SDS011;363;48.764;9.172;2023-02-18T00:06:18;0.88;;;0.88;;
757;SDS011;363;48.764;9.172;2023-02-18T00:08:46;1.10;;;1.00;;
757;SDS011;363;48.764;9.172;2023-02-18T00:11:12;1.40;;;0.90;;
757;SDS011;363;48.764;9.172;2023-02-18T00:13:38;1.15;;;1.05;;
757;SDS011;363;48.764;9.172;2023-02-18T00:16:04;1.00;;;0.90;;
757;SDS011;363;48.764;9.172;2023-02-18T00:18:32;1.10;;;1.00;;
757;SDS011;363;48.764;9.172;2023-02-18T00:20:58;2.63;;;1.20;;
757;SDS011;363;48.764;9.172;2023-02-18T00:23:24;0.90;;;0.90;;
757;SDS011;363;48.764;9.172;2023-02-18T00:25:57;0.95;;;0.80;;
757;SDS011;363;48.764;9.172;2023-02-18T00:28:29;0.90;;;0.90;;
757;SDS011;363;48.764;9.172;2023-02-18T00:30:54;1.50;;;0.90;;
757;SDS011;363;48.764;9.172;2023-02-18T00:33:20;1.10;;;1.00;;
757;SDS011;363;48.764;9.172;2023-02-18T00:35:46;1.83;;;1.10;;
757;SDS011;363;48.764;9.172;2023-02-18T00:38:11;1.20;;;0.93;;
757;SDS011;363;48.764;9.172;2023-02-18T00:40:37;0.93;;;0.90;;
757;SDS011;363;48.764;9.172;2023-02-18T00:43:04;0.90;;;0.90;;
757;SDS011;363;48.764;9.172;2023-02-18T00:45:29;0.87;;;0.83;;
757;SDS011;363;48.764;9.172;2023-02-18T00:47:55;1.33;;;0.90;;
757;SDS011;363;48.764;9.172;2023-02-18T00:50:20;1.20;;;1.10;;
757;SDS011;363;48.764;9.172;2023-02-18T00:52:46;1.15;;;1.05;;
757;SDS011;363;48.764;9.172;2023-02-18T00:55:12;1.80;;;1.10;;
757;SDS011;363;48.764;9.172;2023-02-18T00:57:38;1.63;;;1.10;;
757;SDS011;363;48.764;9.172;2023-02-18T01:00:04;1.20;;;1.10;;
757;SDS011;363;48.764;9.172;2023-02-18T01:02:30;1.10;;;1.00;;
757;SDS011;363;48.764;9.172;2023-02-18T01:04:56;1.10;;;1.00;;
757;SDS011;363;48.764;9.172;2023-02-18T01:07:21;2.20;;;1.30;;
757;SDS011;363;48.764;9.172;2023-02-18T01:09:47;1.10;;;1.00;;
757;SDS011;363;48.764;9.172;2023-02-18T01:12:12;1.00;;;0.90;;
757;SDS011;363;48.764;9.172;2023-02-18T01:14:38;1.27;;;0.90;;
757;SDS011;363;48.764;9.172;2023-02-18T01:17:04;0.80;;;0.80;;
757;SDS011;363;48.764;9.172;2023-02-18T01:19:29;1.03;;;0.93;;
757;SDS011;363;48.764;9.172;2023-02-18T01:21:55;1.30;;;1.20;;
757;SDS011;363;48.764;9.172;2023-02-18T01:24:20;1.30;;;1.20;;
757;SDS011;363;48.764;9.172;2023-02-18T01:26:46;1.23;;;1.13;;
757;SDS011;363;48.764;9.172;2023-02-18T01:29:11;2.57;;;1.10;;
757;SDS011;363;48.764;9.172;2023-02-18T01:31:37;1.10;;;1.00;;
757;SDS011;363;48.764;9.172;2023-02-18T01:34:02;1.30;;;1.20;;
757;SDS011;363;48.764;9.172;2023-02-18T01:36:28;1.30;;;1.13;;
757;SDS011;363;48.764;9.172;2023-02-18T01:38:54;1.60;;;1.50;;
757;SDS011;363;48.764;9.172;2023-02-18T01:41:19;2.77;;;1.20;;
757;SDS011;363;48.764;9.172;2023-02-18T01:43:45;1.80;;;1.37;;
757;SDS011;363;48.764;9.172;2023-02-18T01:51:23;1.40;;;1.30;;
757;SDS011;363;48.764;9.172;2023-02-18T01:56:40;1.45;;;1.35;;
757;SDS011;363;48.764;9.172;2023-02-18T01:59:14;1.52;;;1.42;;
757;SDS011;363;48.764;9.172;2023-02-18T02:01:44;1.20;;;1.10;;
757;SDS011;363;48.764;9.172;2023-02-18T02:04:10;2.37;;;1.30;;
757;SDS011;363;48.764;9.172;2023-02-18T02:06:36;1.60;;;1.50;;
757;SDS011;363;48.764;9.172;2023-02-18T02:09:03;1.30;;;1.20;;
757;SDS011;363;48.764;9.172;2023-02-18T02:11:53;2.20;;;1.55;;
757;SDS011;363;48.764;9.172;2023-02-18T02:14:45;1.67;;;1.58;;
757;SDS011;363;48.764;9.172;2023-02-18T02:34:21;1.70;;;1.60;;
757;SDS011;363;48.764;9.172;2023-02-18T02:37:23;1.58;;;1.48;;
757;SDS011;363;48.764;9.172;2023-02-18T02:43:01;1.77;;;1.38;;
757;SDS011;363;48.764;9.172;2023-02-18T02:48:15;2.28;;;1.58;;
757;SDS011;363;48.764;9.172;2023-02-18T02:50:51;1.70;;;1.60;;
757;SDS011;363;48.764;9.172;2023-02-18T02:53:25;1.70;;;1.60;;
757;SDS011;363;48.764;9.172;2023-02-18T02:55:53;1.90;;;1.60;;
757;SDS011;363;48.764;9.172;2023-02-18T02:58:20;1.70;;;1.50;;
757;SDS011;363;48.764;9.172;2023-02-18T03:06:51;1.42;;;1.33;;
757;SDS011;363;48.764;9.172;2023-02-18T03:12:36;2.03;;;1.90;;
757;SDS011;363;48.764;9.172;2023-02-18T03:15:23;1.35;;;1.25;;
757;SDS011;363;48.764;9.172;2023-02-18T03:17:59;1.77;;;1.30;;
757;SDS011;363;48.764;9.172;2023-02-18T03:20:31;1.50;;;1.40;;
757;SDS011;363;48.764;9.172;2023-02-18T03:23:01;5.22;;;1.55;;
757;SDS011;363;48.764;9.172;2023-02-18T03:25:31;1.40;;;1.30;;
757;SDS011;363;48.764;9.172;2023-02-18T03:28:07;1.30;;;1.13;;
757;SDS011;363;48.764;9.172;2023-02-18T03:30:42;2.67;;;1.48;;
757;SDS011;363;48.764;9.172;2023-02-18T03:33:13;1.30;;;1.20;;
757;SDS011;363;48.764;9.172;2023-02-18T03:35:42;2.80;;;1.40;;
757;SDS011;363;48.764;9.172;2023-02-18T03:38:17;1.40;;;1.30;;
757;SDS011;363;48.764;9.172;2023-02-18T03:40:49;2.90;;;1.30;;
757;SDS011;363;48.764;9.172;2023-02-18T03:43:15;1.20;;;1.10;;
757;SDS011;363;48.764;9.172;2023-02-18T03:45:40;1.20;;;1.00;;
757;SDS011;363;48.764;9.172;2023-02-18T03:48:06;2.20;;;1.27;;
757;SDS011;363;48.764;9.172;2023-02-18T03:50:32;1.30;;;1.20;;
757;SDS011;363;48.764;9.172;2023-02-18T03:52:58;1.57;;;1.23;;
757;SDS011;363;48.764;9.172;2023-02-18T03:55:23;2.03;;;1.47;;
757;SDS011;363;48.764;9.172;2023-02-18T03:57:49;1.50;;;1.40;;
757;SDS011;363;48.764;9.172;2023-02-18T04:00:14;1.50;;;1.40;;
757;SDS011;363;48.764;9.172;2023-02-18T04:02:40;1.63;;;1.53;;
757;SDS011;363;48.764;9.172;2023-02-18T04:05:06;1.27;;;1.17;;
757;SDS011;363;48.764;9.172;2023-02-18T04:07:32;3.10;;;1.67;;
757;SDS011;363;48.764;9.172;2023-02-18T04:09:57;1.57;;;1.47;;
757;SDS011;363;48.764;9.172;2023-02-18T04:12:23;8.70;;;1.80;;
757;SDS011;363;48.764;9.172;2023-02-18T04:14:49;1.53;;;1.43;;
757;SDS011;363;48.764;9.172;2023-02-18T04:17:14;2.93;;;1.63;;
757;SDS011;363;48.764;9.172;2023-02-18T04:19:40;1.37;;;1.27;;
757;SDS011;363;48.764;9.172;2023-02-18T04:22:05;1.60;;;1.33;;
757;SDS011;363;48.764;9.172;2023-02-18T04:24:31;2.13;;;1.50;;
757;SDS011;363;48.764;9.172;2023-02-18T04:26:56;1.43;;;1.33;;
757;SDS011;363;48.764;9.172;2023-02-18T04:29:22;2.03;;;1.47;;
757;SDS011;363;48.764;9.172;2023-02-18T04:31:47;2.37;;;1.30;;
757;SDS011;363;48.764;9.172;2023-02-18T04:34:13;1.57;;;1.47;;
757;SDS011;363;48.764;9.172;2023-02-18T04:36:38;1.73;;;1.20;;
757;SDS011;363;48.764;9.172;2023-02-18T04:39:04;2.13;;;1.60;;
757;SDS011;363;48.764;9.172;2023-02-18T04:41:29;2.43;;;1.50;;
757;SDS011;363;48.764;9.172;2023-02-18T04:43:55;3.03;;;2.77;;
757;SDS011;363;48.764;9.172;2023-02-18T04:46:20;2.03;;;1.40;;
757;SDS011;363;48.764;9.172;2023-02-18T04:48:46;1.47;;;1.37;;
757;SDS011;363;48.764;9.172;2023-02-18T04:51:11;1.47;;;1.37;;
757;SDS011;363;48.764;9.172;2023-02-18T04:53:37;1.50;;;1.40;;
757;SDS011;363;48.764;9.172;2023-02-18T04:56:02;2.10;;;1.90;;
757;SDS011;363;48.764;9.172;2023-02-18T04:58:28;1.30;;;1.20;;
757;SDS011;363;48.764;9.172;2023-02-18T05:00:57;1.60;;;1.50;;
757;SDS011;363;48.764;9.172;2023-02-18T05:03:27;1.42;;;1.25;;
757;SDS011;363;48.764;9.172;2023-02-18T05:05:53;2.67;;;1.70;;
757;SDS011;363;48.764;9.172;2023-02-18T05:08:19;1.45;;;1.33;;
757;SDS011;363;48.764;9.172;2023-02-18T05:10:45;1.70;;;1.60;;
757;SDS011;363;48.764;9.172;2023-02-18T05:13:11;1.93;;;1.53;;
757;SDS011;363;48.764;9.172;2023-02-18T05:15:36;1.53;;;1.43;;
757;SDS011;363;48.764;9.172;2023-02-18T05:18:02;1.60;;;1.43;;
757;SDS011;363;48.764;9.172;2023-02-18T05:20:27;1.87;;;1.33;;
757;SDS011;363;48.764;9.172;2023-02-18T05:22:53;1.40;;;1.27;;
757;SDS011;363;48.764;9.172;2023-02-18T05:25:19;2.50;;;1.50;;
757;SDS011;363;48.764;9.172;2023-02-18T05:27:45;1.30;;;1.20;;
757;SDS011;363;48.764;9.172;2023-02-18T05:30:10;1.27;;;1.17;;
757;SDS011;363;48.764;9.172;2023-02-18T05:32:36;1.30;;;1.20;;
757;SDS011;363;48.764;9.172;2023-02-18T05:35:01;1.53;;;1.30;;
757;SDS011;363;48.764;9.172;2023-02-18T05:37:27;1.37;;;1.27;;
757;SDS011;363;48.764;9.172;2023-02-18T05:39:53;1.67;;;1.57;;
757;SDS011;363;48.764;9.172;2023-02-18T05:42:18;2.17;;;1.97;;
757;SDS011;363;48.764;9.172;2023-02-18T05:44:44;2.28;;;1.50;;
757;SDS011;363;48.764;9.172;2023-02-18T05:47:10;2.73;;;2.53;;
757;SDS011;363;48.764;9.172;2023-02-18T05:49:37;1.67;;;1.58;;
757;SDS011;363;48.764;9.172;2023-02-18T05:52:04;2.08;;;1.88;;
757;SDS011;363;48.764;9.172;2023-02-18T05:54:29;3.23;;;1.90;;
757;SDS011;363;48.764;9.172;2023-02-18T05:56:55;2.17;;;1.73;;
757;SDS011;363;48.764;9.172;2023-02-18T05:59:23;1.77;;;1.60;;
757;SDS011;363;48.764;9.172;2023-02-18T06:01:48;1.85;;;1.70;;
757;SDS011;363;48.764;9.172;2023-02-18T06:04:15;1.80;;;1.70;;
757;SDS011;363;48.764;9.172;2023-02-18T06:06:41;2.17;;;1.90;;
757;SDS011;363;48.764;9.172;2023-02-18T06:09:07;2.40;;;2.00;;
757;SDS011;363;48.764;9.172;2023-02-18T06:11:33;2.60;;;1.77;;
757;SDS011;363;48.764;9.172;2023-02-18T06:13:59;1.92;;;1.70;;
757;SDS011;363;48.764;9.172;2023-02-18T06:16:25;3.63;;;2.00;;
757;SDS011;363;48.764;9.172;2023-02-18T06:18:51;1.63;;;1.50;;
757;SDS011;363;48.764;9.172;2023-02-18T06:21:16;1.87;;;1.70;;
757;SDS011;363;48.764;9.172;2023-02-18T06:23:42;1.90;;;1.80;;
757;SDS011;363;48.764;9.172;2023-02-18T06:26:08;1.60;;;1.50;;
757;SDS011;363;48.764;9.172;2023-02-18T06:28:33;2.77;;;2.53;;
757;SDS011;363;48.764;9.172;2023-02-18T06:30:59;2.70;;;2.05;;
757;SDS011;363;48.764;9.172;2023-02-18T06:33:25;2.27;;;1.87;;
757;SDS011;363;48.764;9.172;2023-02-18T06:35:57;2.47;;;2.27;;
757;SDS011;363;48.764;9.172;2023-02-18T06:38:31;2.50;;;2.30;;
757;SDS011;363;48.764;9.172;2023-02-18T06:40:56;4.00;;;2.00;;
757;SDS011;363;48.764;9.172;2023-02-18T06:43:22;2.80;;;2.13;;
757;SDS011;363;48.764;9.172;2023-02-18T06:45:47;2.63;;;2.43;;
757;SDS011;363;48.764;9.172;2023-02-18T06:48:13;2.47;;;2.27;;
757;SDS011;363;48.764;9.172;2023-02-18T06:50:39;3.30;;;2.03;;
757;SDS011;363;48.764;9.172;2023-02-18T06:53:05;2.78;;;2.58;;
757;SDS011;363;48.764;9.172;2023-02-18T06:55:30;2.13;;;1.93;;
757;SDS011;363;48.764;9.172;2023-02-18T06:57:56;2.63;;;2.40;;
757;SDS011;363;48.764;9.172;2023-02-18T07:00:21;4.20;;;2.50;;
757;SDS011;363;48.764;9.172;2023-02-18T07:02:47;3.00;;;2.70;;
757;SDS011;363;48.764;9.172;2023-02-18T07:05:13;2.60;;;2.40;;
757;SDS011;363;48.764;9.172;2023-02-18T07:07:39;3.77;;;2.37;;
757;SDS011;363;48.764;9.172;2023-02-18T07:10:04;4.90;;;2.43;;
757;SDS011;363;48.764;9.172;2023-02-18T07:12:31;4.13;;;2.60;;
757;SDS011;363;48.764;9.172;2023-02-18T07:14:56;3.53;;;2.67;;
757;SDS011;363;48.764;9.172;2023-02-18T07:17:22;2.03;;;1.77;;
757;SDS011;363;48.764;9.172;2023-02-18T07:19:47;1.90;;;1.43;;
757;SDS011;363;48.764;9.172;2023-02-18T07:22:13;3.20;;;2.90;;
757;SDS011;363;48.764;9.172;2023-02-18T07:24:38;2.30;;;2.10;;
757;SDS011;363;48.764;9.172;2023-02-18T07:27:04;1.47;;;1.37;;
757;SDS011;363;48.764;9.172;2023-02-18T07:29:29;1.50;;;1.30;;
757;SDS011;363;48.764;9.172;2023-02-18T07:31:55;1.90;;;1.77;;
757;SDS011;363;48.764;9.172;2023-02-18T07:34:20;2.17;;;2.07;;
757;SDS011;363;48.764;9.172;2023-02-18T07:36:46;1.80;;;1.70;;
757;SDS011;363;48.764;9.172;2023-02-18T07:39:12;1.47;;;1.37;;
757;SDS011;363;48.764;9.172;2023-02-18T07:41:37;1.50;;;1.40;;
757;SDS011;363;48.764;9.172;2023-02-18T07:44:03;1.70;;;1.30;;
757;SDS011;363;48.764;9.172;2023-02-18T07:46:29;1.90;;;1.80;;
757;SDS011;363;48.764;9.172;2023-02-18T07:49:00;2.37;;;1.33;;
757;SDS011;363;48.764;9.172;2023-02-18T07:51:25;2.20;;;1.98;;
757;SDS011;363;48.764;9.172;2023-02-18T07:53:51;1.80;;;1.70;;
757;SDS011;363;48.764;9.172;2023-02-18T07:56:17;1.90;;;1.70;;
757;SDS011;363;48.764;9.172;2023-02-18T07:58:42;2.00;;;1.80;;
757;SDS011;363;48.764;9.172;2023-02-18T08:01:09;2.40;;;1.53;;
757;SDS011;363;48.764;9.172;2023-02-18T08:03:38;1.83;;;1.65;;
757;SDS011;363;48.764;9.172;2023-02-18T08:06:04;1.60;;;1.50;;
757;SDS011;363;48.764;9.172;2023-02-18T08:08:31;2.00;;;1.80;;
757;SDS011;363;48.764;9.172;2023-02-18T08:10:58;1.80;;;1.20;;
757;SDS011;363;48.764;9.172;2023-02-18T08:13:30;4.28;;;1.98;;
757;SDS011;363;48.764;9.172;2023-02-18T08:15:56;1.53;;;1.43;;
757;SDS011;363;48.764;9.172;2023-02-18T08:18:23;1.77;;;1.67;;
757;SDS011;363;48.764;9.172;2023-02-18T08:20:49;3.72;;;1.83;;
757;SDS011;363;48.764;9.172;2023-02-18T08:23:17;2.65;;;2.08;;
757;SDS011;363;48.764;9.172;2023-02-18T08:25:45;1.75;;;1.65;;
757;SDS011;363;48.764;9.172;2023-02-18T08:28:11;2.20;;;1.42;;
757;SDS011;363;48.764;9.172;2023-02-18T08:30:37;1.70;;;1.60;;
757;SDS011;363;48.764;9.172;2023-02-18T08:33:02;2.90;;;1.63;;
757;SDS011;363;48.764;9.172;2023-02-18T08:35:28;1.67;;;1.57;;
757;SDS011;363;48.764;9.172;2023-02-18T08:37:54;2.03;;;1.60;;
757;SDS011;363;48.764;9.172;2023-02-18T08:40:19;2.03;;;1.80;;
757;SDS011;363;48.764;9.172;2023-02-18T08:42:45;1.80;;;1.60;;
757;SDS011;363;48.764;9.172;2023-02-18T08:45:10;3.07;;;1.50;;
757;SDS011;363;48.764;9.172;2023-02-18T08:47:36;2.33;;;1.40;;
757;SDS011;363;48.764;9.172;2023-02-18T08:50:02;1.90;;;1.50;;
757;SDS011;363;48.764;9.172;2023-02-18T08:52:28;1.38;;;1.27;;
757;SDS011;363;48.764;9.172;2023-02-18T08:54:53;1.37;;;1.27;;
757;SDS011;363;48.764;9.172;2023-02-18T08:57:19;3.00;;;1.60;;
757;SDS011;363;48.764;9.172;2023-02-18T08:59:44;3.10;;;1.87;;
757;SDS011;363;48.764;9.172;2023-02-18T09:02:11;1.90;;;1.43;;
757;SDS011;363;48.764;9.172;2023-02-18T09:04:37;1.40;;;1.30;;
757;SDS011;363;48.764;9.172;2023-02-18T09:07:03;1.00;;;0.90;;
757;SDS011;363;48.764;9.172;2023-02-18T09:09:29;1.63;;;1.10;;
757;SDS011;363;48.764;9.172;2023-02-18T09:11:54;1.40;;;1.20;;
757;SDS011;363;48.764;9.172;2023-02-18T09:14:20;1.67;;;1.23;;
757;SDS011;363;48.764;9.172;2023-02-18T09:16:45;1.63;;;1.43;;
757;SDS011;363;48.764;9.172;2023-02-18T09:19:11;1.30;;;1.20;;
757;SDS011;363;48.764;9.172;2023-02-18T09:21:36;1.43;;;1.33;;
757;SDS011;363;48.764;9.172;2023-02-18T09:24:02;1.90;;;1.57;;
757;SDS011;363;48.764;9.172;2023-02-18T09:26:28;2.80;;;1.50;;
757;SDS011;363;48.764;9.172;2023-02-18T09:28:54;1.40;;;1.30;;
757;SDS011;363;48.764;9.172;2023-02-18T09:31:26;1.77;;;1.65;;
757;SDS011;363;48.764;9.172;2023-02-18T09:33:57;1.95;;;1.70;;
757;SDS011;363;48.764;9.172;2023-02-18T09:36:24;1.48;;;1.27;;
757;SDS011;363;48.764;9.172;2023-02-18T09:38:53;2.00;;;1.67;;
757;SDS011;363;48.764;9.172;2023-02-18T09:41:33;2.17;;;1.15;;
757;SDS011;363;48.764;9.172;2023-02-18T09:44:12;1.40;;;1.30;;
757;SDS011;363;48.764;9.172;2023-02-18T09:46:48;6.47;;;1.92;;
757;SDS011;363;48.764;9.172;2023-02-18T09:49:19;2.20;;;1.17;;
757;SDS011;363;48.764;9.172;2023-02-18T09:51:49;2.30;;;1.40;;
757;SDS011;363;48.764;9.172;2023-02-18T09:54:16;1.63;;;1.35;;
757;SDS011;363;48.764;9.172;2023-02-18T09:56:43;5.93;;;1.50;;
757;SDS011;363;48.764;9.172;2023-02-18T09:59:12;1.58;;;1.48;;
757;SDS011;363;48.764;9.172;2023-02-18T10:01:44;2.65;;;1.50;;
757;SDS011;363;48.764;9.172;2023-02-18T10:04:24;3.00;;;1.45;;
757;SDS011;363;48.764;9.172;2023-02-18T10:06:58;1.55;;;1.10;;
757;SDS011;363;48.764;9.172;2023-02-18T10:09:28;1.80;;;1.52;;
757;SDS011;363;48.764;9.172;2023-02-18T10:12:17;2.35;;;1.30;;
757;SDS011;363;48.764;9.172;2023-02-18T10:14:47;3.55;;;1.27;;
757;SDS011;363;48.764;9.172;2023-02-18T10:17:15;2.55;;;1.42;;
757;SDS011;363;48.764;9.172;2023-02-18T10:19:42;4.53;;;1.70;;
757;SDS011;363;48.764;9.172;2023-02-18T10:22:10;1.42;;;1.33;;
757;SDS011;363;48.764;9.172;2023-02-18T10:24:39;1.30;;;1.20;;
757;SDS011;363;48.764;9.172;2023-02-18T10:27:07;4.90;;;1.52;;
757;SDS011;363;48.764;9.172;2023-02-18T10:29:34;3.67;;;1.40;;
757;SDS011;363;48.764;9.172;2023-02-18T10:32:11;1.20;;;1.10;;
757;SDS011;363;48.764;9.172;2023-02-18T10:34:46;1.73;;;1.20;;
757;SDS011;363;48.764;9.172;2023-02-18T10:40:05;1.50;;;1.40;;
757;SDS011;363;48.764;9.172;2023-02-18T10:45:41;2.20;;;2.00;;
757;SDS011;363;48.764;9.172;2023-02-18T10:51:19;1.70;;;1.40;;
757;SDS011;363;48.764;9.172;2023-02-18T10:53:47;1.42;;;1.30;;
757;SDS011;363;48.764;9.172;2023-02-18T10:56:48;3.47;;;1.52;;
757;SDS011;363;48.764;9.172;2023-02-18T10:59:20;4.40;;;1.33;;
757;SDS011;363;48.764;9.172;2023-02-18T11:04:48;1.17;;;1.08;;
757;SDS011;363;48.764;9.172;2023-02-18T11:07:21;2.63;;;1.80;;
757;SDS011;363;48.764;9.172;2023-02-18T11:09:55;1.10;;;1.10;;
757;SDS011;363;48.764;9.172;2023-02-18T11:12:29;1.70;;;1.00;;
757;SDS011;363;48.764;9.172;2023-02-18T11:17:38;1.67;;;1.20;;
757;SDS011;363;48.764;9.172;2023-02-18T11:20:22;1.67;;;1.38;;
757;SDS011;363;48.764;9.172;2023-02-18T11:25:32;2.70;;;1.17;;
757;SDS011;363;48.764;9.172;2023-02-18T11:28:00;2.75;;;1.20;;
757;SDS011;363;48.764;9.172;2023-02-18T11:30:36;2.83;;;1.75;;
757;SDS011;363;48.764;9.172;2023-02-18T11:33:15;2.00;;;1.10;;
757;SDS011;363;48.764;9.172;2023-02-18T11:35:48;2.17;;;1.52;;
757;SDS011;363;48.764;9.172;2023-02-18T11:38:20;1.25;;;1.15;;
757;SDS011;363;48.764;9.172;2023-02-18T11:40:53;2.75;;;1.77;;
757;SDS011;363;48.764;9.172;2023-02-18T11:43:21;2.75;;;1.00;;
757;SDS011;363;48.764;9.172;2023-02-18T11:46:07;1.85;;;1.20;;
757;SDS011;363;48.764;9.172;2023-02-18T11:48:40;2.15;;;1.40;;
757;SDS011;363;48.764;9.172;2023-02-18T11:51:21;1.63;;;1.00;;
757;SDS011;363;48.764;9.172;2023-02-18T11:56:18;1.20;;;1.10;;
757;SDS011;363;48.764;9.172;2023-02-18T11:58:45;1.80;;;1.70;;
757;SDS011;363;48.764;9.172;2023-02-18T12:04:10;2.38;;;2.17;;
757;SDS011;363;48.764;9.172;2023-02-18T12:09:34;2.97;;;1.35;;
757;SDS011;363;48.764;9.172;2023-02-18T12:14:41;4.20;;;1.35;;
757;SDS011;363;48.764;9.172;2023-02-18T12:17:13;1.63;;;1.52;;
757;SDS011;363;48.764;9.172;2023-02-18T12:20:17;3.72;;;1.30;;
757;SDS011;363;48.764;9.172;2023-02-18T12:33:46;1.80;;;1.50;;
757;SDS011;363;48.764;9.172;2023-02-18T12:36:26;2.95;;;1.30;;
757;SDS011;363;48.764;9.172;2023-02-18T12:49:52;1.73;;;1.60;;
757;SDS011;363;48.764;9.172;2023-02-18T12:52:41;2.35;;;1.58;;
757;SDS011;363;48.764;9.172;2023-02-18T13:04:05;2.22;;;1.92;;
757;SDS011;363;48.764;9.172;2023-02-18T13:06:41;1.80;;;1.70;;
757;SDS011;363;48.764;9.172;2023-02-18T13:12:29;2.90;;;2.30;;
757;SDS011;363;48.764;9.172;2023-02-18T13:15:18;1.75;;;1.65;;
757;SDS011;363;48.764;9.172;2023-02-18T13:17:46;2.05;;;1.75;;
757;SDS011;363;48.764;9.172;2023-02-18T13:20:24;1.73;;;1.63;;
757;SDS011;363;48.764;9.172;2023-02-18T13:23:00;1.60;;;1.50;;
757;SDS011;363;48.764;9.172;2023-02-18T13:25:27;1.52;;;1.42;;
757;SDS011;363;48.764;9.172;2023-02-18T13:28:02;1.75;;;1.65;;
757;SDS011;363;48.764;9.172;2023-02-18T13:33:38;1.67;;;1.58;;
757;SDS011;363;48.764;9.172;2023-02-18T13:36:31;1.90;;;1.73;;
757;SDS011;363;48.764;9.172;2023-02-18T13:39:07;2.03;;;1.83;;
757;SDS011;363;48.764;9.172;2023-02-18T13:41:37;2.30;;;2.10;;
757;SDS011;363;48.764;9.172;2023-02-18T13:44:08;1.90;;;1.70;;
757;SDS011;363;48.764;9.172;2023-02-18T13:46:47;2.50;;;1.80;;
757;SDS011;363;48.764;9.172;2023-02-18T13:49:14;2.20;;;1.90;;
757;SDS011;363;48.764;9.172;2023-02-18T13:51:55;2.97;;;1.85;;
757;SDS011;363;48.764;9.172;2023-02-18T13:54:44;2.20;;;1.33;;
757;SDS011;363;48.764;9.172;2023-02-18T13:57:15;2.13;;;1.92;;
757;SDS011;363;48.764;9.172;2023-02-18T13:59:45;2.45;;;2.22;;
757;SDS011;363;48.764;9.172;2023-02-18T14:02:30;4.00;;;1.88;;
757;SDS011;363;48.764;9.172;2023-02-18T14:10:05;3.88;;;2.10;;
757;SDS011;363;48.764;9.172;2023-02-18T14:25:48;1.98;;;1.77;;
757;SDS011;363;48.764;9.172;2023-02-18T14:33:30;3.88;;;1.77;;
757;SDS011;363;48.764;9.172;2023-02-18T14:36:21;3.00;;;1.80;;
757;SDS011;363;48.764;9.172;2023-02-18T14:42:02;3.45;;;1.90;;
757;SDS011;363;48.764;9.172;2023-02-18T14:44:48;2.20;;;1.63;;
757;SDS011;363;48.764;9.172;2023-02-18T14:50:30;2.20;;;1.98;;
757;SDS011;363;48.764;9.172;2023-02-18T14:52:59;1.90;;;1.80;;
757;SDS011;363;48.764;9.172;2023-02-18T14:55:31;1.88;;;1.70;;
757;SDS011;363;48.764;9.172;2023-02-18T14:57:59;3.85;;;1.85;;
757;SDS011;363;48.764;9.172;2023-02-18T15:00:52;1.80;;;1.65;;
757;SDS011;363;48.764;9.172;2023-02-18T15:03:18;1.80;;;1.70;;
757;SDS011;363;48.764;9.172;2023-02-18T15:05:46;2.42;;;2.08;;
757;SDS011;363;48.764;9.172;2023-02-18T15:10:46;1.90;;;1.75;;
757;SDS011;363;48.764;9.172;2023-02-18T15:13:26;3.15;;;2.10;;
757;SDS011;363;48.764;9.172;2023-02-18T15:16:15;2.97;;;1.70;;
757;SDS011;363;48.764;9.172;2023-02-18T15:18:58;3.60;;;1.60;;
757;SDS011;363;48.764;9.172;2023-02-18T15:24:07;2.63;;;2.10;;
757;SDS011;363;48.764;9.172;2023-02-18T15:26:42;2.03;;;1.92;;
757;SDS011;363;48.764;9.172;2023-02-18T15:29:30;2.20;;;1.60;;
757;SDS011;363;48.764;9.172;2023-02-18T15:31:58;1.98;;;1.88;;
757;SDS011;363;48.764;9.172;2023-02-18T15:36:55;2.33;;;2.13;;
757;SDS011;363;48.764;9.172;2023-02-18T15:39:21;2.47;;;2.28;;
757;SDS011;363;48.764;9.172;2023-02-18T15:41:51;2.53;;;2.20;;
757;SDS011;363;48.764;9.172;2023-02-18T15:44:24;3.08;;;2.70;;
757;SDS011;363;48.764;9.172;2023-02-18T15:46:52;2.10;;;1.88;;
757;SDS011;363;48.764;9.172;2023-02-18T15:49:19;3.17;;;2.87;;
757;SDS011;363;48.764;9.172;2023-02-18T15:51:48;2.78;;;1.95;;
757;SDS011;363;48.764;9.172;2023-02-18T15:54:16;2.10;;;1.90;;
757;SDS011;363;48.764;9.172;2023-02-18T15:56:44;1.95;;;1.60;;
757;SDS011;363;48.764;9.172;2023-02-18T15:59:17;1.90;;;1.70;;
757;SDS011;363;48.764;9.172;2023-02-18T16:01:52;2.05;;;1.83;;
757;SDS011;363;48.764;9.172;2023-02-18T16:04:20;1.85;;;1.75;;
757;SDS011;363;48.764;9.172;2023-02-18T16:06:53;2.40;;;1.90;;
757;SDS011;363;48.764;9.172;2023-02-18T16:11:50;2.90;;;2.35;;
757;SDS011;363;48.764;9.172;2023-02-18T16:14:25;2.28;;;2.08;;
757;SDS011;363;48.764;9.172;2023-02-18T16:19:48;1.98;;;1.80;;
757;SDS011;363;48.764;9.172;2023-02-18T16:24:47;2.60;;;2.40;;
757;SDS011;363;48.764;9.172;2023-02-18T16:27:15;1.90;;;1.80;;
757;SDS011;363;48.764;9.172;2023-02-18T16:29:42;2.70;;;2.50;;
757;SDS011;363;48.764;9.172;2023-02-18T16:32:08;3.92;;;2.72;;
757;SDS011;363;48.764;9.172;2023-02-18T16:34:34;3.30;;;2.70;;
757;SDS011;363;48.764;9.172;2023-02-18T16:37:00;4.82;;;2.80;;
757;SDS011;363;48.764;9.172;2023-02-18T16:40:01;2.30;;;2.10;;
757;SDS011;363;48.764;9.172;2023-02-18T16:42:27;3.23;;;2.50;;
757;SDS011;363;48.764;9.172;2023-02-18T16:44:53;3.73;;;3.33;;
757;SDS011;363;48.764;9.172;2023-02-18T16:47:19;2.70;;;2.50;;
757;SDS011;363;48.764;9.172;2023-02-18T16:49:45;3.53;;;2.57;;
757;SDS011;363;48.764;9.172;2023-02-18T16:52:14;2.15;;;1.95;;
757;SDS011;363;48.764;9.172;2023-02-18T16:54:41;2.20;;;1.60;;
757;SDS011;363;48.764;9.172;2023-02-18T16:57:08;2.88;;;2.40;;
757;SDS011;363;48.764;9.172;2023-02-18T16:59:36;2.53;;;2.08;;
757;SDS011;363;48.764;9.172;2023-02-18T17:02:02;2.03;;;1.93;;
757;SDS011;363;48.764;9.172;2023-02-18T17:04:28;1.95;;;1.63;;
757;SDS011;363;48.764;9.172;2023-02-18T17:06:53;2.60;;;2.40;;
757;SDS011;363;48.764;9.172;2023-02-18T17:09:21;1.80;;;1.70;;
757;SDS011;363;48.764;9.172;2023-02-18T17:11:50;1.95;;;1.80;;
757;SDS011;363;48.764;9.172;2023-02-18T17:14:18;2.53;;;1.75;;
757;SDS011;363;48.764;9.172;2023-02-18T17:16:45;2.20;;;2.00;;
757;SDS011;363;48.764;9.172;2023-02-18T17:19:12;3.08;;;2.60;;
757;SDS011;363;48.764;9.172;2023-02-18T17:21:38;2.97;;;2.37;;
757;SDS011;363;48.764;9.172;2023-02-18T17:24:03;2.50;;;2.20;;
757;SDS011;363;48.764;9.172;2023-02-18T17:26:29;3.83;;;2.27;;
757;SDS011;363;48.764;9.172;2023-02-18T17:28:55;2.87;;;2.67;;
757;SDS011;363;48.764;9.172;2023-02-18T17:31:26;3.30;;;2.25;;
757;SDS011;363;48.764;9.172;2023-02-18T17:33:55;2.20;;;2.00;;
757;SDS011;363;48.764;9.172;2023-02-18T17:36:22;3.70;;;3.40;;
757;SDS011;363;48.764;9.172;2023-02-18T17:38:48;14.37;;;2.33;;
757;SDS011;363;48.764;9.172;2023-02-18T17:41:13;2.77;;;2.57;;
757;SDS011;363;48.764;9.172;2023-02-18T17:43:39;3.28;;;2.97;;
757;SDS011;363;48.764;9.172;2023-02-18T17:46:05;2.87;;;2.00;;
757;SDS011;363;48.764;9.172;2023-02-18T17:48:34;2.70;;;2.30;;
757;SDS011;363;48.764;9.172;2023-02-18T17:50:59;2.13;;;2.00;;
757;SDS011;363;48.764;9.172;2023-02-18T17:53:25;1.87;;;1.77;;
757;SDS011;363;48.764;9.172;2023-02-18T17:55:51;2.43;;;2.23;;
757;SDS011;363;48.764;9.172;2023-02-18T17:58:17;3.17;;;2.80;;
757;SDS011;363;48.764;9.172;2023-02-18T18:00:44;2.00;;;1.80;;
757;SDS011;363;48.764;9.172;2023-02-18T18:03:14;2.10;;;2.00;;
757;SDS011;363;48.764;9.172;2023-02-18T18:05:41;11.32;;;7.18;;
757;SDS011;363;48.764;9.172;2023-02-18T18:08:08;5.25;;;3.45;;
757;SDS011;363;48.764;9.172;2023-02-18T18:10:36;5.40;;;2.42;;
757;SDS011;363;48.764;9.172;2023-02-18T18:13:04;3.33;;;2.60;;
757;SDS011;363;48.764;9.172;2023-02-18T18:15:32;2.50;;;2.30;;
757;SDS011;363;48.764;9.172;2023-02-18T18:18:02;2.40;;;2.22;;
757;SDS011;363;48.764;9.172;2023-02-18T18:20:29;2.92;;;2.60;;
757;SDS011;363;48.764;9.172;2023-02-18T18:22:57;4.00;;;2.13;;
757;SDS011;363;48.764;9.172;2023-02-18T18:25:26;2.55;;;2.35;;
757;SDS011;363;48.764;9.172;2023-02-18T18:27:53;3.47;;;2.75;;